Time;durP1;ratioP1;P1;durP2;ratioP2;P2;SDS_P1;SDS_P2;PMS_P1;PMS_P2;Temp;Humidity;BMP_temperature;BMP_pressure;BME280_temperature;BME280_humidity;BME280_pressure;Samples;Min_cycle;Max_cycle;Signal;HPM_P1;HPM_P2
2022/03/17 00:01:35;;;;;;;52.72;32.35;;;;;;;;;;4988334;28;20038;-82
2022/03/17 00:04:01;;;;;;;52.22;32.20;;;;;;;;;;4985184;28;20042;-82
2022/03/17 00:06:27;;;;;;;50.33;32.00;;;;;;;;;;5000061;28;20100;-82
2022/03/17 00:08:53;;;;;;;52.97;33.65;;;;;;;;;;4999128;28;20056;-82
2022/03/17 00:11:18;;;;;;;51.33;32.63;;;;;;;;;;5000664;28;20038;-82
2022/03/17 00:13:44;;;;;;;51.67;32.67;;;;;;;;;;4987089;28;20044;-83
2022/03/17 00:16:10;;;;;;;52.53;32.67;;;;;;;;;;4979994;28;20077;-82
2022/03/17 00:18:36;;;;;;;51.55;30.88;;;;;;;;;;4997970;28;20084;-82
2022/03/17 00:21:02;;;;;;;51.53;33.28;;;;;;;;;;4996966;28;20037;-82
2022/03/17 00:23:28;;;;;;;55.30;33.42;;;;;;;;;;4987073;28;20035;-82
2022/03/17 00:25:53;;;;;;;52.28;33.10;;;;;;;;;;4987155;28;20370;-82
2022/03/17 00:28:18;;;;;;;52.10;32.05;;;;;;;;;;4995367;28;20112;-82
2022/03/17 00:30:44;;;;;;;53.50;32.22;;;;;;;;;;4996645;28;20031;-82
2022/03/17 00:33:09;;;;;;;50.95;32.92;;;;;;;;;;4997442;28;20129;-82
2022/03/17 00:35:42;;;;;;;55.15;33.72;;;;;;;;;;4998170;28;20034;-82
2022/03/17 00:38:16;;;;;;;53.08;33.50;;;;;;;;;;4983641;28;20838;-82
2022/03/17 00:40:43;;;;;;;56.60;36.25;;;;;;;;;;4997566;28;20106;-82
2022/03/17 00:43:11;;;;;;;57.20;35.03;;;;;;;;;;4981967;28;20501;-82
2022/03/17 00:45:37;;;;;;;52.53;33.60;;;;;;;;;;4988762;28;20041;-83
2022/03/17 00:48:02;;;;;;;56.65;34.67;;;;;;;;;;4996825;28;20042;-82
2022/03/17 00:50:28;;;;;;;56.63;34.50;;;;;;;;;;4997021;28;20451;-82
2022/03/17 00:52:53;;;;;;;52.47;33.75;;;;;;;;;;4995407;28;20041;-83
2022/03/17 00:55:20;;;;;;;56.58;35.60;;;;;;;;;;4996223;28;20064;-83
2022/03/17 00:57:48;;;;;;;51.90;33.05;;;;;;;;;;5013144;28;20493;-82
2022/03/17 01:00:14;;;;;;;55.72;33.97;;;;;;;;;;4982010;28;20049;-82
2022/03/17 01:02:43;;;;;;;55.72;34.80;;;;;;;;;;4996672;28;20034;-82
2022/03/17 01:05:10;;;;;;;50.55;33.17;;;;;;;;;;4999002;28;20030;-82
2022/03/17 01:07:37;;;;;;;54.95;33.58;;;;;;;;;;4981924;28;20033;-83
2022/03/17 01:10:04;;;;;;;55.53;33.65;;;;;;;;;;5000815;28;20046;-83
2022/03/17 01:12:30;;;;;;;54.42;34.28;;;;;;;;;;5003659;28;20176;-83
2022/03/17 01:14:55;;;;;;;54.40;34.08;;;;;;;;;;4974758;28;20144;-83
2022/03/17 01:17:20;;;;;;;54.90;34.10;;;;;;;;;;5001896;28;20558;-83
2022/03/17 01:19:46;;;;;;;57.35;34.50;;;;;;;;;;5000561;28;20042;-83
2022/03/17 01:22:11;;;;;;;57.03;34.55;;;;;;;;;;4987335;28;20499;-83
2022/03/17 01:24:36;;;;;;;52.03;33.40;;;;;;;;;;4986503;28;20034;-83
2022/03/17 01:27:02;;;;;;;55.15;34.53;;;;;;;;;;5000977;28;20034;-83
2022/03/17 01:29:29;;;;;;;59.55;36.25;;;;;;;;;;5003293;28;20034;-83
2022/03/17 01:31:54;;;;;;;54.80;34.77;;;;;;;;;;5000545;28;20113;-82
2022/03/17 01:34:19;;;;;;;57.17;35.45;;;;;;;;;;4989290;28;20137;-83
2022/03/17 01:36:45;;;;;;;56.30;34.05;;;;;;;;;;4999582;28;20034;-83
2022/03/17 01:39:10;;;;;;;54.42;34.70;;;;;;;;;;4987164;28;20038;-83
2022/03/17 01:41:36;;;;;;;56.85;35.30;;;;;;;;;;4997717;28;20049;-83
2022/03/17 01:44:04;;;;;;;55.70;35.72;;;;;;;;;;4988528;28;20045;-82
2022/03/17 01:46:29;;;;;;;52.70;34.53;;;;;;;;;;4989170;28;20083;-83
2022/03/17 01:48:54;;;;;;;56.35;35.10;;;;;;;;;;4984305;28;20054;-83
2022/03/17 01:51:20;;;;;;;58.17;36.13;;;;;;;;;;4989967;28;20387;-83
2022/03/17 01:53:45;;;;;;;57.85;35.70;;;;;;;;;;5000752;28;20452;-83
2022/03/17 01:56:11;;;;;;;55.63;35.35;;;;;;;;;;4982541;28;20045;-82
2022/03/17 01:58:36;;;;;;;57.30;36.47;;;;;;;;;;5001034;28;20108;-82
2022/03/17 02:01:02;;;;;;;58.97;36.63;;;;;;;;;;4980685;28;20141;-82
2022/03/17 02:03:28;;;;;;;55.42;36.00;;;;;;;;;;5001486;28;20041;-82
2022/03/17 02:05:54;;;;;;;52.38;34.97;;;;;;;;;;4997983;28;20038;-81
2022/03/17 02:08:19;;;;;;;57.78;36.30;;;;;;;;;;5003653;28;20050;-81
2022/03/17 02:13:29;;;;;;;58.58;36.58;;;;;;;;;;4999515;28;20507;-82
2022/03/17 02:15:54;;;;;;;58.25;36.72;;;;;;;;;;4984644;28;20030;-82
2022/03/17 02:18:21;;;;;;;55.47;35.60;;;;;;;;;;4999991;28;20145;-82
2022/03/17 02:20:49;;;;;;;58.67;38.38;;;;;;;;;;4999685;28;20844;-82
2022/03/17 02:26:03;;;;;;;57.65;35.88;;;;;;;;;;4999201;28;20155;-82
2022/03/17 02:28:31;;;;;;;61.70;38.15;;;;;;;;;;4979980;28;20031;-81
2022/03/17 02:30:57;;;;;;;59.22;38.00;;;;;;;;;;5000954;28;20033;-82
2022/03/17 02:33:24;;;;;;;57.50;36.33;;;;;;;;;;4997371;28;20045;-84
2022/03/17 02:35:51;;;;;;;59.17;37.75;;;;;;;;;;4983119;28;20428;-82
2022/03/17 02:38:17;;;;;;;59.25;38.10;;;;;;;;;;4988934;28;20041;-82
2022/03/17 02:40:45;;;;;;;56.28;36.55;;;;;;;;;;4998594;28;20500;-81
2022/03/17 02:43:14;;;;;;;61.13;37.95;;;;;;;;;;4987508;28;20120;-81
2022/03/17 02:45:40;;;;;;;59.30;38.00;;;;;;;;;;4984417;28;20025;-82
2022/03/17 02:48:06;;;;;;;60.58;38.55;;;;;;;;;;4998498;28;20061;-82
2022/03/17 02:50:31;;;;;;;61.10;38.47;;;;;;;;;;4979921;28;20489;-82
2022/03/17 02:52:59;;;;;;;65.63;40.42;;;;;;;;;;4989448;28;20397;-81
2022/03/17 02:55:24;;;;;;;63.83;39.83;;;;;;;;;;4944714;28;1063753;-82
2022/03/17 02:57:50;;;;;;;63.90;40.35;;;;;;;;;;5000373;28;20125;-82
2022/03/17 03:00:16;;;;;;;60.67;39.72;;;;;;;;;;4997139;28;20057;-83
2022/03/17 03:02:42;;;;;;;64.30;41.38;;;;;;;;;;5002170;28;20038;-82
2022/03/17 03:05:08;;;;;;;63.72;41.67;;;;;;;;;;5002267;28;20072;-82
2022/03/17 03:07:34;;;;;;;62.60;40.55;;;;;;;;;;5003231;28;20050;-82
2022/03/17 03:10:00;;;;;;;58.30;37.55;;;;;;;;;;4999126;28;20030;-82
2022/03/17 03:12:25;;;;;;;65.30;41.08;;;;;;;;;;4997621;28;20053;-82
2022/03/17 03:14:50;;;;;;;59.72;38.83;;;;;;;;;;4997875;28;20732;-82
2022/03/17 03:17:16;;;;;;;64.90;39.85;;;;;;;;;;4998930;28;20371;-82
2022/03/17 03:19:42;;;;;;;63.45;40.63;;;;;;;;;;5001822;28;20120;-82
2022/03/17 03:22:08;;;;;;;63.83;40.47;;;;;;;;;;4988490;28;20042;-82
2022/03/17 03:24:36;;;;;;;61.60;40.35;;;;;;;;;;4999583;28;20066;-81
2022/03/17 03:27:02;;;;;;;62.88;41.17;;;;;;;;;;4981502;28;20051;-82
2022/03/17 03:29:27;;;;;;;61.10;40.35;;;;;;;;;;5001915;28;20464;-83
2022/03/17 03:31:57;;;;;;;62.03;40.33;;;;;;;;;;4987885;28;20061;-82
2022/03/17 03:34:24;;;;;;;66.90;42.08;;;;;;;;;;4989996;28;20042;-82
2022/03/17 03:39:34;;;;;;;63.78;41.72;;;;;;;;;;5017152;28;20037;-83
2022/03/17 03:42:00;;;;;;;67.50;42.25;;;;;;;;;;4984357;28;20054;-82
2022/03/17 03:44:26;;;;;;;61.47;40.65;;;;;;;;;;4998964;28;20037;-83
2022/03/17 03:46:51;;;;;;;62.13;40.78;;;;;;;;;;4998339;28;20489;-83
2022/03/17 03:49:17;;;;;;;62.30;41.40;;;;;;;;;;4981453;28;20129;-83
2022/03/17 03:51:42;;;;;;;67.57;42.28;;;;;;;;;;5003554;28;20105;-83
2022/03/17 03:54:17;;;;;;;67.13;42.78;;;;;;;;;;4999193;28;20100;-83
2022/03/17 03:56:48;;;;;;;67.32;42.67;;;;;;;;;;4999309;28;20073;-83
2022/03/17 03:59:23;;;;;;;65.13;41.83;;;;;;;;;;4980478;28;20041;-82
2022/03/17 04:01:50;;;;;;;67.85;43.17;;;;;;;;;;4998380;28;20419;-82
2022/03/17 04:04:19;;;;;;;61.47;41.88;;;;;;;;;;5004337;28;20038;-83
2022/03/17 04:06:46;;;;;;;64.40;41.33;;;;;;;;;;4998379;28;20423;-83
2022/03/17 04:09:16;;;;;;;67.47;42.87;;;;;;;;;;4981099;28;20124;-84
2022/03/17 04:11:42;;;;;;;66.28;41.72;;;;;;;;;;5017655;28;20053;-82
2022/03/17 04:14:08;;;;;;;66.95;41.45;;;;;;;;;;4998755;28;20430;-81
2022/03/17 04:16:37;;;;;;;67.78;43.38;;;;;;;;;;5001260;28;20500;-81
2022/03/17 04:19:03;;;;;;;69.80;41.72;;;;;;;;;;4995772;28;20043;-81
2022/03/17 04:21:28;;;;;;;68.45;43.65;;;;;;;;;;4979320;28;20084;-83
2022/03/17 04:23:54;;;;;;;67.88;43.20;;;;;;;;;;4998867;28;20046;-82
2022/03/17 04:26:22;;;;;;;66.38;43.40;;;;;;;;;;4997329;28;20034;-82
2022/03/17 04:28:47;;;;;;;;;;;;;;;;;;4995113;28;20180;-82
2022/03/17 04:31:12;;;;;;;63.97;40.17;;;;;;;;;;4997693;28;20455;-81
2022/03/17 04:33:37;;;;;;;69.65;42.80;;;;;;;;;;4996785;28;20095;-81
2022/03/17 04:36:04;;;;;;;68.13;43.13;;;;;;;;;;4993589;28;20999;-80
2022/03/17 04:38:29;;;;;;;68.10;43.45;;;;;;;;;;4998904;28;20088;-81
2022/03/17 04:40:54;;;;;;;68.55;44.78;;;;;;;;;;4977156;28;20850;-81
2022/03/17 04:43:20;;;;;;;67.32;43.28;;;;;;;;;;4979085;28;20045;-82
2022/03/17 04:45:46;;;;;;;68.28;43.88;;;;;;;;;;4999143;28;20088;-81
2022/03/17 04:48:12;;;;;;;66.65;43.13;;;;;;;;;;4986465;28;20046;-83
2022/03/17 04:50:38;;;;;;;68.60;43.97;;;;;;;;;;4995336;28;20081;-82
2022/03/17 04:55:47;;;;;;;70.07;44.85;;;;;;;;;;4995019;28;20608;-82
2022/03/17 04:58:13;;;;;;;70.53;43.85;;;;;;;;;;5000685;28;20157;-82
2022/03/17 05:00:39;;;;;;;65.95;43.15;;;;;;;;;;4999105;28;20493;-82
2022/03/17 05:03:04;;;;;;;71.32;44.20;;;;;;;;;;4996923;28;20042;-81
2022/03/17 05:05:30;;;;;;;69.20;44.97;;;;;;;;;;5000174;28;20405;-82
2022/03/17 05:07:57;;;;;;;68.97;44.58;;;;;;;;;;4979237;28;20501;-81
2022/03/17 05:10:27;;;;;;;70.22;44.90;;;;;;;;;;4977781;28;20625;-82
2022/03/17 05:12:52;;;;;;;71.85;44.90;;;;;;;;;;4996168;28;20041;-81
2022/03/17 05:15:18;;;;;;;71.32;45.15;;;;;;;;;;4994523;28;20038;-82
2022/03/17 05:17:43;;;;;;;75.22;46.88;;;;;;;;;;4999011;28;20030;-81
2022/03/17 05:20:12;;;;;;;71.75;46.78;;;;;;;;;;4995033;28;20049;-82
2022/03/17 05:22:41;;;;;;;69.30;46.28;;;;;;;;;;4997364;28;20034;-81
2022/03/17 05:25:08;;;;;;;71.10;45.67;;;;;;;;;;4997383;28;20104;-81
2022/03/17 05:27:41;;;;;;;72.30;46.90;;;;;;;;;;5002655;28;20385;-81
2022/03/17 05:30:08;;;;;;;73.45;46.58;;;;;;;;;;4977338;28;20045;-81
2022/03/17 05:32:37;;;;;;;74.28;47.25;;;;;;;;;;5002096;28;20045;-81
2022/03/17 05:35:03;;;;;;;72.45;46.55;;;;;;;;;;4995311;28;20123;-79
2022/03/17 05:37:28;;;;;;;71.65;47.22;;;;;;;;;;4984945;28;20460;-82
2022/03/17 05:39:53;;;;;;;72.50;47.13;;;;;;;;;;4996237;28;20359;-82
2022/03/17 05:42:18;;;;;;;73.53;47.90;;;;;;;;;;4997395;28;20041;-82
2022/03/17 05:44:44;;;;;;;73.85;47.95;;;;;;;;;;4982921;28;20462;-82
2022/03/17 05:47:09;;;;;;;74.15;47.15;;;;;;;;;;4995358;28;20445;-85
2022/03/17 05:49:37;;;;;;;75.30;48.45;;;;;;;;;;4999457;28;20432;-81
2022/03/17 05:52:03;;;;;;;73.32;47.80;;;;;;;;;;5000763;28;20045;-84
2022/03/17 05:54:29;;;;;;;73.15;47.50;;;;;;;;;;4995925;28;20046;-78
2022/03/17 05:56:54;;;;;;;76.65;47.88;;;;;;;;;;4999127;28;20030;-79
2022/03/17 05:59:19;;;;;;;74.53;48.63;;;;;;;;;;4999732;28;20143;-78
2022/03/17 06:01:44;;;;;;;73.82;47.05;;;;;;;;;;5001456;28;20035;-78
2022/03/17 06:04:10;;;;;;;106.63;62.65;;;;;;;;;;4999335;28;20030;-80
2022/03/17 06:06:35;;;;;;;79.72;48.80;;;;;;;;;;4990806;28;20037;-79
2022/03/17 06:09:01;;;;;;;74.95;48.67;;;;;;;;;;4988920;28;20034;-78
2022/03/17 06:11:27;;;;;;;80.13;48.95;;;;;;;;;;4999210;28;20034;-78
2022/03/17 06:13:53;;;;;;;73.85;47.80;;;;;;;;;;4998903;28;20038;-79
2022/03/17 06:16:20;;;;;;;80.10;51.17;;;;;;;;;;5003469;28;20042;-79
2022/03/17 06:18:46;;;;;;;79.90;51.10;;;;;;;;;;5002989;28;20045;-80
2022/03/17 06:21:11;;;;;;;79.05;51.00;;;;;;;;;;4998894;28;20060;-81
2022/03/17 06:23:36;;;;;;;80.88;50.78;;;;;;;;;;4999109;28;20057;-81
2022/03/17 06:26:02;;;;;;;80.53;50.72;;;;;;;;;;4997019;28;20120;-82
2022/03/17 06:28:27;;;;;;;82.55;49.92;;;;;;;;;;4983241;28;20042;-80
2022/03/17 06:30:54;;;;;;;76.80;50.53;;;;;;;;;;4981118;28;20060;-81
2022/03/17 06:33:19;;;;;;;85.47;53.35;;;;;;;;;;4999091;28;20053;-80
2022/03/17 06:35:45;;;;;;;85.43;53.17;;;;;;;;;;4988454;28;20088;-80
2022/03/17 06:38:10;;;;;;;83.68;51.35;;;;;;;;;;5000236;28;20129;-81
2022/03/17 06:40:36;;;;;;;76.85;51.17;;;;;;;;;;5004433;28;20038;-81
2022/03/17 06:43:01;;;;;;;79.35;51.05;;;;;;;;;;5000823;28;20045;-80
2022/03/17 06:45:27;;;;;;;85.20;52.38;;;;;;;;;;4983827;28;20033;-81
2022/03/17 06:47:53;;;;;;;79.82;51.00;;;;;;;;;;4981644;28;20033;-81
2022/03/17 06:50:20;;;;;;;80.88;53.17;;;;;;;;;;4999681;28;20105;-81
2022/03/17 06:52:45;;;;;;;83.78;53.15;;;;;;;;;;4988529;28;20046;-82
2022/03/17 06:55:11;;;;;;;83.13;51.80;;;;;;;;;;4981584;28;20387;-81
2022/03/17 06:57:37;;;;;;;80.53;51.95;;;;;;;;;;5000155;28;20034;-81
2022/03/17 07:00:10;;;;;;;84.82;53.22;;;;;;;;;;4996198;28;20468;-80
2022/03/17 07:02:36;;;;;;;81.80;52.90;;;;;;;;;;4987693;28;20627;-81
2022/03/17 07:05:02;;;;;;;80.60;52.72;;;;;;;;;;5000004;28;20044;-82
2022/03/17 07:07:27;;;;;;;82.38;52.35;;;;;;;;;;4999602;28;20455;-81
2022/03/17 07:09:53;;;;;;;80.28;52.45;;;;;;;;;;5001729;28;20034;-82
2022/03/17 07:12:19;;;;;;;75.07;50.63;;;;;;;;;;4999221;28;20087;-81
2022/03/17 07:14:44;;;;;;;80.03;52.08;;;;;;;;;;4986757;28;20472;-81
2022/03/17 07:17:09;;;;;;;78.35;51.45;;;;;;;;;;4999699;28;20080;-81
2022/03/17 07:19:35;;;;;;;95.13;57.60;;;;;;;;;;4979213;28;20033;-81
2022/03/17 07:22:00;;;;;;;78.80;52.45;;;;;;;;;;4988653;28;20038;-80
2022/03/17 07:24:26;;;;;;;82.95;54.45;;;;;;;;;;5003054;28;20416;-81
2022/03/17 07:26:53;;;;;;;78.30;52.13;;;;;;;;;;4996628;28;20044;-81
2022/03/17 07:29:19;;;;;;;81.20;52.47;;;;;;;;;;4997642;28;20062;-82
2022/03/17 07:31:44;;;;;;;80.22;52.05;;;;;;;;;;4982946;28;20450;-82
2022/03/17 07:34:09;;;;;;;78.28;50.55;;;;;;;;;;5000409;28;20039;-82
2022/03/17 07:36:35;;;;;;;81.13;53.60;;;;;;;;;;4986553;28;20457;-81
2022/03/17 07:39:03;;;;;;;82.05;52.25;;;;;;;;;;4997195;28;20521;-83
2022/03/17 07:41:29;;;;;;;82.35;52.53;;;;;;;;;;4998439;28;20038;-81
2022/03/17 07:43:54;;;;;;;77.25;50.10;;;;;;;;;;5000782;28;20098;-82
2022/03/17 07:46:20;;;;;;;79.00;51.88;;;;;;;;;;4996508;28;20041;-80
2022/03/17 07:48:45;;;;;;;82.85;53.63;;;;;;;;;;4979824;28;20038;-81
2022/03/17 07:51:11;;;;;;;86.80;52.72;;;;;;;;;;4980432;28;20085;-81
2022/03/17 07:53:37;;;;;;;78.45;52.30;;;;;;;;;;4999931;28;20544;-80
2022/03/17 07:56:03;;;;;;;79.68;52.58;;;;;;;;;;5014819;28;20390;-82
2022/03/17 07:58:29;;;;;;;77.22;52.40;;;;;;;;;;4997521;28;20065;-81
2022/03/17 08:00:56;;;;;;;82.38;53.38;;;;;;;;;;4996132;28;20033;-81
2022/03/17 08:03:21;;;;;;;80.25;52.50;;;;;;;;;;4980392;28;20125;-81
2022/03/17 08:05:47;;;;;;;82.00;54.05;;;;;;;;;;4987632;28;20132;-81
2022/03/17 08:08:13;;;;;;;83.53;53.67;;;;;;;;;;4982308;28;20508;-81
2022/03/17 08:10:39;;;;;;;76.95;52.92;;;;;;;;;;4996758;28;20036;-81
2022/03/17 08:13:06;;;;;;;80.35;53.30;;;;;;;;;;4998432;28;20046;-81
2022/03/17 08:15:31;;;;;;;78.32;53.72;;;;;;;;;;4996030;28;20556;-83
2022/03/17 08:17:56;;;;;;;78.57;53.00;;;;;;;;;;5018567;28;20120;-83
2022/03/17 08:20:22;;;;;;;81.07;53.67;;;;;;;;;;4979172;28;20141;-82
2022/03/17 08:22:49;;;;;;;81.13;52.67;;;;;;;;;;4995931;28;20500;-82
2022/03/17 08:25:16;;;;;;;79.57;53.22;;;;;;;;;;4995078;28;20519;-83
2022/03/17 08:27:42;;;;;;;82.65;53.92;;;;;;;;;;4980849;28;20099;-84
2022/03/17 08:30:08;;;;;;;76.90;52.15;;;;;;;;;;4998356;28;20113;-82
2022/03/17 08:32:33;;;;;;;74.05;51.15;;;;;;;;;;4999385;28;20041;-82
2022/03/17 08:35:01;;;;;;;73.65;50.85;;;;;;;;;;4987628;28;20485;-82
2022/03/17 08:37:27;;;;;;;76.13;52.60;;;;;;;;;;4985838;28;20044;-82
2022/03/17 08:39:52;;;;;;;77.10;51.15;;;;;;;;;;5001617;28;20624;-82
2022/03/17 08:42:17;;;;;;;77.25;52.53;;;;;;;;;;4996916;28;20035;-82
2022/03/17 08:44:43;;;;;;;85.20;52.58;;;;;;;;;;5007351;28;20125;-81
2022/03/17 08:49:52;;;;;;;81.40;52.13;;;;;;;;;;4995312;28;20220;-83
2022/03/17 08:52:19;;;;;;;70.93;48.50;;;;;;;;;;4995943;28;20113;-80
2022/03/17 08:54:47;;;;;;;68.97;46.80;;;;;;;;;;4996256;28;20053;-83
2022/03/17 08:57:13;;;;;;;69.65;48.60;;;;;;;;;;4996900;28;20389;-80
2022/03/17 08:59:38;;;;;;;75.63;49.42;;;;;;;;;;4984644;28;20042;-80
2022/03/17 09:02:06;;;;;;;75.20;50.85;;;;;;;;;;4984107;28;20153;-80
2022/03/17 09:04:32;;;;;;;71.00;49.17;;;;;;;;;;4979089;28;21335;-80
2022/03/17 09:06:59;;;;;;;72.60;48.38;;;;;;;;;;4985066;28;20121;-82
2022/03/17 09:09:28;;;;;;;66.60;47.22;;;;;;;;;;4987890;28;20451;-82
2022/03/17 09:11:54;;;;;;;65.15;47.88;;;;;;;;;;4999558;28;20034;-80
2022/03/17 09:14:20;;;;;;;72.07;49.80;;;;;;;;;;4998276;28;20627;-83
2022/03/17 09:16:45;;;;;;;68.30;48.45;;;;;;;;;;4998416;28;20040;-80
2022/03/17 09:19:11;;;;;;;69.65;47.80;;;;;;;;;;4996504;28;20050;-81
2022/03/17 09:21:36;;;;;;;66.97;46.80;;;;;;;;;;4997524;28;20041;-80
2022/03/17 09:24:03;;;;;;;71.55;49.22;;;;;;;;;;4997745;28;20042;-81
2022/03/17 09:26:29;;;;;;;66.20;48.47;;;;;;;;;;4994571;28;20065;-80
2022/03/17 09:28:54;;;;;;;66.60;46.00;;;;;;;;;;4997919;28;20524;-82
2022/03/17 09:31:20;;;;;;;67.63;46.90;;;;;;;;;;5002900;28;20400;-81
2022/03/17 09:33:45;;;;;;;68.03;47.80;;;;;;;;;;4999390;28;20077;-81
2022/03/17 09:36:11;;;;;;;68.35;47.95;;;;;;;;;;5002894;28;20107;-80
2022/03/17 09:38:36;;;;;;;63.35;45.65;;;;;;;;;;5002043;28;20037;-81
2022/03/17 09:41:23;;;;;;;68.68;47.33;;;;;;;;;;4998963;28;20545;-82
2022/03/17 09:43:47;;;;;;;61.20;45.17;;;;;;;;;;4999642;28;20038;-81
2022/03/17 09:46:12;;;;;;;70.05;47.00;;;;;;;;;;4983254;28;20560;-83
2022/03/17 09:48:38;;;;;;;66.07;46.47;;;;;;;;;;4989633;28;20053;-81
2022/03/17 09:51:05;;;;;;;62.30;46.05;;;;;;;;;;5001550;28;20605;-82
2022/03/17 09:53:31;;;;;;;68.43;47.60;;;;;;;;;;4987034;28;20091;-84
2022/03/17 09:55:56;;;;;;;62.00;46.03;;;;;;;;;;5003544;28;20066;-82
2022/03/17 09:58:22;;;;;;;66.07;46.92;;;;;;;;;;5002600;28;20066;-82
2022/03/17 10:00:47;;;;;;;66.65;46.75;;;;;;;;;;5001683;28;20121;-82
2022/03/17 10:03:25;;;;;;;64.07;46.40;;;;;;;;;;4984831;28;20042;-81
2022/03/17 10:05:51;;;;;;;64.72;46.50;;;;;;;;;;4989364;28;20150;-81
2022/03/17 10:08:18;;;;;;;66.43;46.40;;;;;;;;;;5000905;28;20042;-81
2022/03/17 10:10:43;;;;;;;62.72;46.83;;;;;;;;;;4998888;28;20041;-80
2022/03/17 10:13:16;;;;;;;65.50;47.17;;;;;;;;;;5002529;28;20497;-83
2022/03/17 10:15:44;;;;;;;62.85;46.60;;;;;;;;;;5001927;28;20060;-81
2022/03/17 10:18:24;;;;;;;66.93;46.85;;;;;;;;;;5000907;28;20046;-80
2022/03/17 10:21:10;;;;;;;65.68;45.50;;;;;;;;;;4979130;28;20045;-83
2022/03/17 10:24:08;;;;;;;62.05;44.60;;;;;;;;;;4999635;28;20038;-82
2022/03/17 10:26:46;;;;;;;60.85;45.03;;;;;;;;;;5000952;28;20091;-82
2022/03/17 10:29:16;;;;;;;59.25;44.65;;;;;;;;;;4982334;28;20046;-81
2022/03/17 10:31:52;;;;;;;63.97;45.80;;;;;;;;;;5001536;28;20434;-82
2022/03/17 10:34:19;;;;;;;61.25;46.03;;;;;;;;;;4983904;28;20034;-81
2022/03/17 10:36:48;;;;;;;59.63;44.40;;;;;;;;;;4993656;28;20030;-83
2022/03/17 10:39:14;;;;;;;62.13;43.03;;;;;;;;;;4999272;28;20049;-82
2022/03/17 10:41:44;;;;;;;61.15;44.08;;;;;;;;;;4998509;28;20319;-80
2022/03/17 10:44:12;;;;;;;57.38;42.55;;;;;;;;;;5003761;28;20096;-82
2022/03/17 10:46:37;;;;;;;;;;;;;;;;;;4989736;28;20060;-81
2022/03/17 10:49:05;;;;;;;58.65;43.28;;;;;;;;;;5006952;28;19914;-80
2022/03/17 10:51:43;;;;;;;58.88;43.58;;;;;;;;;;5001669;28;20038;-81
2022/03/17 10:54:08;;;;;;;;;;;;;;;;;;5019287;28;20038;-83
2022/03/17 10:56:35;;;;;;;58.38;42.90;;;;;;;;;;5000141;28;19922;-82
2022/03/17 10:59:00;;;;;;;58.97;42.00;;;;;;;;;;4987792;28;20042;-83
2022/03/17 11:01:48;;;;;;;62.90;43.42;;;;;;;;;;4996751;28;20100;-82
2022/03/17 11:04:14;;;;;;;59.00;42.50;;;;;;;;;;4982751;28;20050;-82
2022/03/17 11:06:40;;;;;;;59.85;42.75;;;;;;;;;;4998863;28;20041;-82
2022/03/17 11:09:08;;;;;;;58.90;42.75;;;;;;;;;;4985384;28;20034;-81
2022/03/17 11:11:33;;;;;;;;;;;;;;;;;;5003446;28;20152;-82
2022/03/17 11:13:59;;;;;;;56.38;41.78;;;;;;;;;;4983059;28;19934;-81
2022/03/17 11:16:36;;;;;;;55.08;40.78;;;;;;;;;;5002544;28;20441;-81
2022/03/17 11:19:01;;;;;;;57.47;40.38;;;;;;;;;;5001728;28;20038;-82
2022/03/17 11:21:30;;;;;;;58.50;42.08;;;;;;;;;;4997916;28;20057;-83
2022/03/17 11:24:08;;;;;;;54.78;40.75;;;;;;;;;;4984698;28;20031;-81
2022/03/17 11:26:37;;;;;;;53.80;40.50;;;;;;;;;;4999086;28;20042;-82
2022/03/17 11:29:13;;;;;;;53.50;39.38;;;;;;;;;;4999946;28;20113;-81
2022/03/17 11:31:56;;;;;;;55.38;39.88;;;;;;;;;;5002436;28;20047;-81
2022/03/17 11:34:47;;;;;;;51.92;39.92;;;;;;;;;;5003567;28;20048;-83
2022/03/17 11:37:18;;;;;;;52.20;39.75;;;;;;;;;;4997577;28;21105;-83
2022/03/17 11:40:03;;;;;;;49.78;37.92;;;;;;;;;;5001842;28;20185;-81
2022/03/17 11:42:49;;;;;;;53.50;40.55;;;;;;;;;;5002622;28;20030;-81
2022/03/17 11:45:14;;;;;;;54.55;39.47;;;;;;;;;;4983187;28;20444;-81
2022/03/17 11:47:50;;;;;;;49.88;38.60;;;;;;;;;;5013526;28;20038;-82
2022/03/17 11:50:33;;;;;;;52.88;38.08;;;;;;;;;;4982685;28;20042;-82
2022/03/17 11:53:02;;;;;;;49.53;37.63;;;;;;;;;;5016143;28;20054;-84
2022/03/17 11:55:46;;;;;;;53.35;38.25;;;;;;;;;;4978682;28;20042;-82
2022/03/17 11:58:15;;;;;;;52.80;38.70;;;;;;;;;;4998172;28;20489;-82
2022/03/17 12:00:48;;;;;;;46.78;36.78;;;;;;;;;;4997254;28;20048;-82
2022/03/17 12:03:13;;;;;;;48.28;36.33;;;;;;;;;;5018762;28;20030;-81
2022/03/17 12:05:40;;;;;;;46.22;36.47;;;;;;;;;;5000252;28;20042;-81
2022/03/17 12:08:05;;;;;;;46.20;35.25;;;;;;;;;;4996134;28;20044;-82
2022/03/17 12:11:02;;;;;;;47.08;36.13;;;;;;;;;;4996235;28;20038;-81
2022/03/17 12:13:27;;;;;;;50.45;35.92;;;;;;;;;;4997215;28;20048;-80
2022/03/17 12:15:56;;;;;;;45.00;34.20;;;;;;;;;;4979159;28;20030;-81
2022/03/17 12:18:21;;;;;;;45.38;34.80;;;;;;;;;;4980355;28;20037;-81
2022/03/17 12:20:47;;;;;;;48.40;34.17;;;;;;;;;;4995197;28;20170;-82
2022/03/17 12:23:47;;;;;;;46.60;34.75;;;;;;;;;;4981484;28;20030;-82
2022/03/17 12:26:12;;;;;;;48.72;35.00;;;;;;;;;;5016005;28;20524;-81
2022/03/17 12:28:44;;;;;;;50.78;35.40;;;;;;;;;;4981120;28;20042;-82
2022/03/17 12:31:09;;;;;;;54.80;34.30;;;;;;;;;;4985986;28;20087;-82
2022/03/17 12:33:38;;;;;;;45.65;34.75;;;;;;;;;;4999103;28;20041;-81
2022/03/17 12:36:06;;;;;;;45.92;34.92;;;;;;;;;;4986975;28;20846;-81
2022/03/17 12:38:32;;;;;;;45.20;33.40;;;;;;;;;;4997007;28;20030;-82
2022/03/17 12:40:58;;;;;;;45.63;33.13;;;;;;;;;;4997216;28;20029;-82
2022/03/17 12:43:23;;;;;;;42.70;32.58;;;;;;;;;;5000400;28;20115;-82
2022/03/17 12:46:49;;;;;;;45.28;34.38;;;;;;;;;;5096464;27;20368;-80
2022/03/17 12:49:14;;;;;;;48.17;34.63;;;;;;;;;;5086089;28;20032;-80
2022/03/17 12:51:40;;;;;;;45.25;34.65;;;;;;;;;;5072454;28;20042;-80
2022/03/17 12:54:05;;;;;;;45.55;35.55;;;;;;;;;;5080235;28;20106;-80
2022/03/17 12:56:30;;;;;;;46.88;36.42;;;;;;;;;;5069119;28;20036;-81
2022/03/17 12:59:04;;;;;;;48.05;34.50;;;;;;;;;;5056795;28;20045;-82
2022/03/17 13:01:29;;;;;;;47.95;35.97;;;;;;;;;;5053850;28;20035;-81
2022/03/17 13:03:54;;;;;;;45.53;34.63;;;;;;;;;;5074912;28;20041;-82
2022/03/17 13:09:05;;;;;;;45.58;34.30;;;;;;;;;;5075476;28;20493;-82
2022/03/17 13:14:21;;;;;;;45.53;33.30;;;;;;;;;;5035161;28;20064;-80
2022/03/17 13:16:58;;;;;;;43.08;33.33;;;;;;;;;;5048018;28;20584;-81
2022/03/17 13:19:23;;;;;;;43.30;33.05;;;;;;;;;;5025660;28;20134;-80
2022/03/17 13:21:51;;;;;;;44.78;33.53;;;;;;;;;;5009003;28;20041;-82
2022/03/17 13:24:17;;;;;;;46.20;33.25;;;;;;;;;;5015739;28;20041;-82
2022/03/17 13:26:42;;;;;;;43.40;32.53;;;;;;;;;;5020517;28;20387;-83
2022/03/17 13:29:13;;;;;;;41.83;31.83;;;;;;;;;;5015728;28;20057;-82
2022/03/17 13:31:44;;;;;;;43.20;31.73;;;;;;;;;;5033298;28;20087;-82
2022/03/17 13:34:29;;;;;;;42.65;32.72;;;;;;;;;;5041645;28;20052;-81
2022/03/17 13:36:57;;;;;;;40.08;30.90;;;;;;;;;;5033476;28;20037;-81
2022/03/17 13:39:33;;;;;;;41.78;30.85;;;;;;;;;;5030735;28;20713;-81
2022/03/17 13:42:06;;;;;;;41.95;30.20;;;;;;;;;;5052785;28;20500;-81
2022/03/17 13:45:00;;;;;;;38.22;30.15;;;;;;;;;;5033401;28;20037;-81
2022/03/17 13:47:29;;;;;;;38.38;29.38;;;;;;;;;;5003643;28;20087;-82
2022/03/17 13:50:15;;;;;;;39.28;29.02;;;;;;;;;;5024104;28;20071;-82
2022/03/17 13:52:41;;;;;;;39.90;28.95;;;;;;;;;;5035583;28;20037;-80
2022/03/17 13:55:16;;;;;;;37.22;28.88;;;;;;;;;;5033326;28;20093;-80
2022/03/17 13:57:42;;;;;;;39.92;29.50;;;;;;;;;;5008806;28;20124;-79
2022/03/17 14:00:21;;;;;;;36.47;29.35;;;;;;;;;;5008885;28;20038;-79
2022/03/17 14:03:11;;;;;;;37.38;29.42;;;;;;;;;;5020784;28;20104;-80
2022/03/17 14:05:36;;;;;;;42.38;30.10;;;;;;;;;;5018520;28;20041;-78
2022/03/17 14:08:02;;;;;;;39.47;29.83;;;;;;;;;;5001777;28;20789;-83
2022/03/17 14:10:27;;;;;;;41.30;31.15;;;;;;;;;;5016791;28;20063;-82
2022/03/17 14:13:02;;;;;;;41.35;30.50;;;;;;;;;;4997058;28;21035;-82
2022/03/17 14:15:27;;;;;;;40.97;30.63;;;;;;;;;;5010190;28;20057;-83
2022/03/17 14:17:53;;;;;;;43.50;32.47;;;;;;;;;;5008005;28;20072;-81
2022/03/17 14:20:18;;;;;;;41.72;31.33;;;;;;;;;;5009166;28;20040;-81
2022/03/17 14:25:27;;;;;;;43.38;31.40;;;;;;;;;;5021233;28;20164;-81
2022/03/17 14:27:53;;;;;;;39.97;32.38;;;;;;;;;;5011098;28;20105;-80
2022/03/17 14:30:18;;;;;;;40.35;31.27;;;;;;;;;;5011800;28;20492;-81
2022/03/17 14:32:43;;;;;;;43.30;31.65;;;;;;;;;;5014588;28;20038;-82
2022/03/17 14:35:09;;;;;;;38.78;31.63;;;;;;;;;;5004523;28;20505;-80
2022/03/17 14:37:40;;;;;;;39.17;32.25;;;;;;;;;;5011091;28;20033;-82
2022/03/17 14:40:06;;;;;;;38.70;31.20;;;;;;;;;;5022545;28;20057;-82
2022/03/17 14:42:33;;;;;;;38.45;30.60;;;;;;;;;;5023740;28;20030;-81
2022/03/17 14:44:59;;;;;;;41.03;32.60;;;;;;;;;;5020129;28;20076;-82